createdAt,value
2022-09-06T00:01:45.840Z,101306.63
2022-09-06T00:04:16.030Z,101314.47
2022-09-06T00:06:53.915Z,101318.88
2022-09-06T00:09:21.246Z,101323.63
2022-09-06T00:11:48.201Z,101347.94
2022-09-06T00:14:16.551Z,101361.19
2022-09-06T00:16:43.515Z,101368.25
2022-09-06T00:19:10.425Z,101376.34
2022-09-06T00:21:40.015Z,101379.97
2022-09-06T00:24:10.113Z,101387.03
2022-09-06T00:26:43.838Z,101372.25
2022-09-06T00:29:23.218Z,101358.06
2022-09-06T00:31:50.132Z,101360.69
2022-09-06T00:34:18.942Z,101387.88
2022-09-06T00:36:46.915Z,101394.88
2022-09-06T00:39:16.867Z,101407.28
2022-09-06T00:41:47.030Z,101410.84
2022-09-06T00:47:00.292Z,101390.78
2022-09-06T00:49:56.986Z,101403.88
2022-09-06T00:52:29.243Z,101409.06
2022-09-06T00:55:04.363Z,101416.97
2022-09-06T00:57:33.935Z,101415.09
2022-09-06T01:00:36.562Z,101425.66
2022-09-06T01:03:04.913Z,101431.78
2022-09-06T01:06:23.023Z,101433.47
2022-09-06T01:09:14.832Z,101439.66
2022-09-06T01:11:41.644Z,101439.66
2022-09-06T01:14:44.666Z,101445.00
2022-09-06T01:17:43.528Z,101436.34
2022-09-06T01:21:21.214Z,101430.38
2022-09-06T01:24:14.903Z,101425.28
2022-09-06T01:27:09.155Z,101427.16
2022-09-06T01:30:14.748Z,101421.03
2022-09-06T01:32:58.523Z,101411.59
2022-09-06T01:35:55.362Z,101410.06
2022-09-06T01:38:24.781Z,101395.34
2022-09-06T01:40:57.407Z,101395.34
2022-09-06T01:43:30.565Z,101391.16
2022-09-06T01:46:08.093Z,101390.41
2022-09-06T01:49:22.880Z,101379.94
2022-09-06T01:52:08.648Z,101371.53
2022-09-06T01:54:59.014Z,101379.34
2022-09-06T01:57:54.978Z,101379.53
2022-09-06T02:00:30.000Z,101390.22
2022-09-06T02:03:22.739Z,101399.88
2022-09-06T02:06:24.227Z,101398.28
2022-09-06T02:09:36.420Z,101391.31
2022-09-06T02:12:10.384Z,101389.59
2022-09-06T02:14:45.752Z,101399.34
2022-09-06T02:17:21.472Z,101384.56
2022-09-06T02:19:57.809Z,101378.47
2022-09-06T02:22:37.152Z,101374.31
2022-09-06T02:25:09.240Z,101383.03
2022-09-06T02:27:37.233Z,101387.50
2022-09-06T02:30:05.838Z,101379.75
2022-09-06T02:32:37.453Z,101370.16
2022-09-06T02:35:12.783Z,101369.31
2022-09-06T02:37:45.103Z,101359.63
2022-09-06T02:40:13.917Z,101339.06
2022-09-06T02:42:43.233Z,101340.84
2022-09-06T02:45:16.363Z,101347.81
2022-09-06T02:47:44.078Z,101347.06
2022-09-06T02:50:13.397Z,101341.16
2022-09-06T02:52:40.370Z,101345.50
2022-09-06T02:55:13.329Z,101335.22
2022-09-06T02:57:40.564Z,101348.13
2022-09-06T03:00:07.964Z,101336.75
2022-09-06T03:02:41.253Z,101334.22
2022-09-06T03:05:14.012Z,101342.16
2022-09-06T03:07:40.946Z,101330.81
2022-09-06T03:10:08.313Z,101319.59
2022-09-06T03:12:36.150Z,101319.50
2022-09-06T03:15:11.644Z,101316.03
2022-09-06T03:17:39.165Z,101303.81
2022-09-06T03:20:07.051Z,101301.25
2022-09-06T03:22:45.807Z,101300.38
2022-09-06T03:25:14.056Z,101297.84
2022-09-06T03:27:41.057Z,101300.56
2022-09-06T03:30:16.211Z,101303.28
2022-09-06T03:32:51.130Z,101305.06
2022-09-06T03:35:18.035Z,101313.03
2022-09-06T03:37:44.939Z,101320.91
2022-09-06T03:42:47.215Z,101317.44
2022-09-06T03:45:21.431Z,101321.91
2022-09-06T03:47:48.520Z,101315.19
2022-09-06T03:50:15.923Z,101322.22
2022-09-06T03:52:43.089Z,101316.97
2022-09-06T03:55:10.392Z,101315.97
2022-09-06T03:57:37.277Z,101305.53
2022-09-06T04:00:05.197Z,101311.56
2022-09-06T04:02:32.305Z,101308.91
2022-09-06T04:04:59.801Z,101319.38
2022-09-06T04:07:29.018Z,101321.16
2022-09-06T04:10:04.055Z,101319.38
2022-09-06T04:12:34.714Z,101320.28
2022-09-06T04:15:05.018Z,101310.25
2022-09-06T04:17:34.038Z,101316.28
2022-09-06T04:20:02.179Z,101316.44
2022-09-06T04:22:29.112Z,101321.53
2022-09-06T04:24:56.103Z,101320.53
2022-09-06T04:27:23.285Z,101324.19
2022-09-06T04:30:02.989Z,101320.91
2022-09-06T04:32:29.923Z,101312.19
2022-09-06T04:34:56.741Z,101310.50
2022-09-06T04:37:23.659Z,101306.22
2022-09-06T04:39:50.645Z,101302.91
2022-09-06T04:42:17.629Z,101304.69
2022-09-06T04:44:44.617Z,101309.34
2022-09-06T04:47:15.502Z,101320.63
2022-09-06T04:49:42.819Z,101315.69
2022-09-06T04:52:10.306Z,101314.03
2022-09-06T04:54:37.421Z,101329.81
2022-09-06T04:57:04.699Z,101336.00
2022-09-06T04:59:31.597Z,101331.81
2022-09-06T05:01:58.595Z,101343.25
2022-09-06T05:04:26.145Z,101334.66
2022-09-06T05:07:07.272Z,101341.88
2022-09-06T05:09:35.021Z,101343.84
2022-09-06T05:12:02.021Z,101342.16
2022-09-06T05:14:29.361Z,101344.94
2022-09-06T05:16:56.397Z,101346.00
2022-09-06T05:19:23.426Z,101347.09
2022-09-06T05:21:53.309Z,101345.44
2022-09-06T05:24:20.271Z,101349.22
2022-09-06T05:26:47.202Z,101354.56
2022-09-06T05:29:14.397Z,101349.38
2022-09-06T05:31:41.394Z,101356.50
2022-09-06T05:34:08.444Z,101357.53
2022-09-06T05:36:35.495Z,101354.16
2022-09-06T05:39:02.397Z,101357.84
2022-09-06T05:41:29.261Z,101355.22
2022-09-06T05:43:56.462Z,101357.84
2022-09-06T05:46:23.431Z,101369.28
2022-09-06T05:49:01.175Z,101361.41
2022-09-06T05:51:28.203Z,101356.09
2022-09-06T05:53:55.069Z,101357.84
2022-09-06T05:56:22.560Z,101355.22
2022-09-06T05:58:49.467Z,101354.44
2022-09-06T06:01:18.360Z,101356.00
2022-09-06T06:03:52.995Z,101356.84
2022-09-06T06:06:21.718Z,101345.44
2022-09-06T06:08:48.959Z,101349.66
2022-09-06T06:11:16.317Z,101349.59
2022-09-06T06:13:44.438Z,101351.25
2022-09-06T06:16:13.726Z,101354.56
2022-09-06T06:18:40.945Z,101347.69
2022-09-06T06:21:08.021Z,101348.31
2022-09-06T06:23:35.096Z,101350.00
2022-09-06T06:26:05.940Z,101340.34
2022-09-06T06:28:33.050Z,101342.91
2022-09-06T06:30:59.870Z,101339.34
2022-09-06T06:33:26.829Z,101340.97
2022-09-06T06:36:00.646Z,101344.31
2022-09-06T06:38:46.446Z,101340.75
2022-09-06T06:41:17.029Z,101337.91
2022-09-06T06:43:44.324Z,101331.72
2022-09-06T06:46:13.675Z,101327.16
2022-09-06T06:48:41.539Z,101330.50
2022-09-06T06:51:10.019Z,101329.47
2022-09-06T06:53:37.063Z,101325.84
2022-09-06T06:56:23.330Z,101325.63
2022-09-06T06:58:52.589Z,101326.38
2022-09-06T07:01:22.041Z,101331.47
2022-09-06T07:03:49.278Z,101325.97
2022-09-06T07:06:19.704Z,101322.31
2022-09-06T07:08:46.741Z,101323.88
2022-09-06T07:11:15.936Z,101327.22
2022-09-06T07:13:43.179Z,101331.28
2022-09-06T07:16:30.355Z,101327.59
2022-09-06T07:18:57.190Z,101319.53
2022-09-06T07:21:42.172Z,101317.44
2022-09-06T07:24:09.587Z,101314.56
2022-09-06T07:26:39.399Z,101311.00
2022-09-06T07:29:07.480Z,101317.66
2022-09-06T07:34:23.269Z,101312.59
2022-09-06T07:36:53.572Z,101320.84
2022-09-06T07:39:20.661Z,101317.00
2022-09-06T07:41:51.098Z,101313.09
2022-09-06T07:44:18.076Z,101310.19
2022-09-06T07:46:45.154Z,101305.44
2022-09-06T07:49:12.232Z,101306.03
2022-09-06T07:51:39.283Z,101313.53
2022-09-06T07:54:28.718Z,101327.06
2022-09-06T07:56:53.954Z,101322.28
2022-09-06T07:59:20.897Z,101322.78
2022-09-06T08:01:48.360Z,101321.50
2022-09-06T08:04:15.394Z,101319.56
2022-09-06T08:09:33.521Z,101326.38
2022-09-06T08:12:06.585Z,101325.00
2022-09-06T08:14:34.569Z,101327.16
2022-09-06T08:17:02.114Z,101317.22
2022-09-06T08:19:29.048Z,101322.13
2022-09-06T08:21:56.217Z,101315.66
2022-09-06T08:24:23.458Z,101320.38
2022-09-06T08:26:50.421Z,101323.56
2022-09-06T08:29:18.906Z,101320.53
2022-09-06T08:31:46.463Z,101316.69
2022-09-06T08:34:15.116Z,101306.78
2022-09-06T08:36:43.123Z,101314.03
2022-09-06T08:39:10.412Z,101299.81
2022-09-06T08:41:57.833Z,101306.16
2022-09-06T08:47:21.806Z,101303.28
2022-09-06T08:50:03.573Z,101307.28
2022-09-06T08:53:06.121Z,101305.13
2022-09-06T08:55:54.958Z,101307.19
2022-09-06T08:58:27.874Z,101306.69
2022-09-06T09:01:00.695Z,101302.72
2022-09-06T09:03:39.279Z,101303.06
2022-09-06T09:06:10.042Z,101299.19
2022-09-06T09:08:52.521Z,101301.22
2022-09-06T09:11:22.568Z,101287.72
2022-09-06T09:13:55.824Z,101288.06
2022-09-06T09:16:23.776Z,101287.69
2022-09-06T09:18:57.471Z,101284.66
2022-09-06T09:21:30.408Z,101279.06
2022-09-06T09:24:03.743Z,101287.31
2022-09-06T09:26:37.089Z,101281.63
2022-09-06T09:29:11.009Z,101288.09
2022-09-06T09:32:01.453Z,101270.84
2022-09-06T09:34:39.839Z,101273.06
2022-09-06T09:40:30.327Z,101263.41
2022-09-06T09:43:11.217Z,101249.97
2022-09-06T09:45:38.136Z,101251.09
2022-09-06T09:48:27.908Z,101246.97
2022-09-06T09:50:56.078Z,101250.16
2022-09-06T09:53:24.484Z,101239.22
2022-09-06T09:55:59.061Z,101241.44
2022-09-06T09:58:36.837Z,101240.16
2022-09-06T10:01:11.353Z,101234.41
2022-09-06T10:09:33.648Z,101224.22
2022-09-06T10:12:00.607Z,101224.66
2022-09-06T10:14:41.430Z,101223.34
2022-09-06T10:17:08.726Z,101224.69
2022-09-06T10:19:42.098Z,101233.25
2022-09-06T10:22:26.432Z,101240.75
2022-09-06T10:25:11.760Z,101258.88
2022-09-06T10:28:10.427Z,101261.06
2022-09-06T10:30:52.501Z,101249.31
2022-09-06T10:33:35.446Z,101234.72
2022-09-06T10:36:03.800Z,101237.69
2022-09-06T10:38:48.357Z,101224.81
2022-09-06T10:41:23.090Z,101230.63
2022-09-06T10:44:15.825Z,101231.97
2022-09-06T10:46:45.683Z,101228.34
2022-09-06T10:49:19.828Z,101228.63
2022-09-06T10:51:52.258Z,101227.28
2022-09-06T10:54:24.436Z,101226.94
2022-09-06T10:56:54.238Z,101226.72
2022-09-06T11:02:36.133Z,101227.47
2022-09-06T11:10:55.721Z,101221.59
2022-09-06T11:13:26.929Z,101220.88
2022-09-06T11:16:20.635Z,101210.75
2022-09-06T11:18:57.144Z,101217.25
2022-09-06T11:22:01.004Z,101210.75
2022-09-06T11:24:46.361Z,101214.13
2022-09-06T11:27:35.775Z,101215.69
2022-09-06T11:30:06.894Z,101212.19
2022-09-06T11:32:48.861Z,101222.44
2022-09-06T11:35:32.650Z,101225.47
2022-09-06T11:38:03.537Z,101228.84
2022-09-06T11:40:38.981Z,101225.13
2022-09-06T11:43:05.818Z,101216.91
2022-09-06T11:45:50.742Z,101220.75
2022-09-06T11:48:23.786Z,101211.69
2022-09-06T11:50:53.384Z,101216.66
2022-09-06T11:53:31.805Z,101215.53
2022-09-06T11:56:01.898Z,101206.22
2022-09-06T11:58:35.125Z,101217.44
2022-09-06T12:01:14.006Z,101209.22
2022-09-06T12:04:09.519Z,101204.63
2022-09-06T12:07:13.148Z,101204.38
2022-09-06T12:09:44.186Z,101197.41
2022-09-06T12:12:16.809Z,101200.50
2022-09-06T12:14:49.202Z,101195.91
2022-09-06T12:17:16.722Z,101194.81
2022-09-06T12:19:52.448Z,101200.72
2022-09-06T12:22:32.758Z,101196.13
2022-09-06T12:25:18.457Z,101195.88
2022-09-06T12:27:56.300Z,101196.59
2022-09-06T12:30:37.534Z,101187.44
2022-09-06T12:33:32.535Z,101189.84
2022-09-06T12:36:30.996Z,101189.56
2022-09-06T12:39:03.929Z,101187.63
2022-09-06T12:41:38.399Z,101190.16
2022-09-06T12:44:09.235Z,101176.72
2022-09-06T12:46:37.109Z,101171.41
2022-09-06T12:49:10.121Z,101170.72
2022-09-06T12:51:43.736Z,101159.41
2022-09-06T12:54:23.190Z,101153.25
2022-09-06T12:56:51.445Z,101152.16
2022-09-06T12:59:25.153Z,101153.84
2022-09-06T13:02:08.651Z,101154.66
2022-09-06T13:04:46.541Z,101156.97
2022-09-06T13:07:17.257Z,101155.25
2022-09-06T13:09:52.022Z,101152.31
2022-09-06T13:12:33.799Z,101141.94
2022-09-06T13:15:25.235Z,101143.50
2022-09-06T13:18:16.602Z,101147.16
2022-09-06T13:20:43.771Z,101134.69
2022-09-06T13:23:19.527Z,101139.75
2022-09-06T13:25:53.102Z,101136.09
2022-09-06T13:28:38.251Z,101133.44
2022-09-06T13:31:23.093Z,101139.38
2022-09-06T13:33:59.619Z,101131.41
2022-09-06T13:36:31.495Z,101134.75
2022-09-06T13:38:59.950Z,101130.25
2022-09-06T13:41:41.286Z,101118.53
2022-09-06T13:44:11.102Z,101116.59
2022-09-06T13:46:38.040Z,101110.28
2022-09-06T13:49:05.690Z,101120.66
2022-09-06T13:51:34.061Z,101114.50
2022-09-06T13:54:14.301Z,101113.50
2022-09-06T13:56:42.636Z,101108.78
2022-09-06T13:59:11.022Z,101105.16
2022-09-06T14:01:43.120Z,101106.75
2022-09-06T14:04:13.443Z,101102.25
2022-09-06T14:06:40.504Z,101097.66
2022-09-06T14:09:08.619Z,101108.72
2022-09-06T14:11:36.581Z,101103.41
2022-09-06T14:14:06.339Z,101098.91
2022-09-06T14:16:34.429Z,101098.66
2022-09-06T14:19:01.368Z,101102.88
2022-09-06T14:21:28.467Z,101104.41
2022-09-06T14:23:55.307Z,101103.31
2022-09-06T14:26:23.114Z,101100.66
2022-09-06T14:28:51.161Z,101105.00
2022-09-06T14:31:20.964Z,101101.50
2022-09-06T14:33:48.023Z,101096.72
2022-09-06T14:36:17.541Z,101096.63
2022-09-06T14:38:45.864Z,101094.91
2022-09-06T14:41:14.535Z,101096.47
2022-09-06T14:43:43.466Z,101091.84
2022-09-06T14:46:14.254Z,101095.22
2022-09-06T14:48:42.816Z,101087.94
2022-09-06T14:51:19.188Z,101087.81
2022-09-06T14:53:46.518Z,101088.66
2022-09-06T14:56:13.778Z,101086.00
2022-09-06T14:58:41.816Z,101078.13
2022-09-06T15:01:14.718Z,101082.22
2022-09-06T15:03:44.293Z,101076.03
2022-09-06T15:06:11.322Z,101076.03
2022-09-06T15:08:48.949Z,101079.41
2022-09-06T15:11:43.687Z,101078.41
2022-09-06T15:14:26.213Z,101073.81
2022-09-06T15:16:56.705Z,101063.03
2022-09-06T15:19:24.866Z,101055.88
2022-09-06T15:21:51.838Z,101043.53
2022-09-06T15:24:19.214Z,101047.75
2022-09-06T15:26:46.243Z,101040.75
2022-09-06T15:29:14.121Z,101040.59
2022-09-06T15:31:42.559Z,101031.50
2022-09-06T15:34:10.203Z,101035.00
2022-09-06T15:36:37.804Z,101030.53
2022-09-06T15:39:05.889Z,101025.47
2022-09-06T15:41:36.176Z,101030.38
2022-09-06T15:44:09.531Z,101023.22
2022-09-06T15:46:36.586Z,101018.91
2022-09-06T15:49:06.691Z,101026.72
2022-09-06T15:51:35.503Z,101021.41
2022-09-06T15:54:02.466Z,101019.59
2022-09-06T15:56:29.393Z,101029.28
2022-09-06T15:58:56.222Z,101015.13
2022-09-06T16:01:25.332Z,101010.91
2022-09-06T16:03:55.015Z,101021.16
2022-09-06T16:09:01.993Z,101021.16
2022-09-06T16:11:30.151Z,101018.38
2022-09-06T16:13:56.993Z,101019.22
2022-09-06T16:16:24.318Z,101017.53
2022-09-06T16:18:52.299Z,101012.22
2022-09-06T16:21:23.979Z,101011.47
2022-09-06T16:24:02.256Z,101009.66
2022-09-06T16:26:37.611Z,101013.28
2022-09-06T16:29:06.278Z,101009.06
2022-09-06T16:31:40.013Z,101005.56
2022-09-06T16:34:09.073Z,101011.03
2022-09-06T16:36:36.068Z,101010.47
2022-09-06T16:39:03.988Z,101012.28
2022-09-06T16:41:42.653Z,101010.75
2022-09-06T16:44:16.200Z,101007.25
2022-09-06T16:46:45.754Z,101010.06
2022-09-06T16:49:12.929Z,101006.69
2022-09-06T16:51:39.939Z,100998.13
2022-09-06T16:54:06.945Z,101004.41
2022-09-06T16:56:35.889Z,101007.09
2022-09-06T16:59:08.314Z,101004.84
2022-09-06T17:01:37.211Z,101005.97
2022-09-06T17:04:05.475Z,101007.06
2022-09-06T17:06:38.378Z,100996.41
2022-09-06T17:09:05.318Z,100999.34
2022-09-06T17:11:32.386Z,101006.47
2022-09-06T17:13:59.320Z,100996.13
2022-09-06T17:16:44.765Z,101002.69
2022-09-06T17:19:13.898Z,101002.13
2022-09-06T17:21:41.874Z,100990.56
2022-09-06T17:24:10.662Z,101001.19
2022-09-06T17:26:39.350Z,100995.72
2022-09-06T17:29:07.199Z,100991.91
2022-09-06T17:31:35.222Z,100994.00
2022-09-06T17:34:02.192Z,100994.41
2022-09-06T17:36:33.193Z,100990.31
2022-09-06T17:39:13.877Z,100991.56
2022-09-06T17:41:46.300Z,100990.41
2022-09-06T17:44:15.629Z,100989.97
2022-09-06T17:46:57.009Z,100982.47
2022-09-06T17:49:24.581Z,100983.84
2022-09-06T17:51:52.144Z,100981.44
2022-09-06T17:54:19.382Z,100990.66
2022-09-06T17:56:46.384Z,100976.91
2022-09-06T17:59:15.455Z,100978.16
2022-09-06T18:01:45.427Z,100985.56
2022-09-06T18:04:13.527Z,100989.44
2022-09-06T18:06:43.220Z,100991.66
2022-09-06T18:09:14.643Z,100992.16
2022-09-06T18:11:42.471Z,100987.38
2022-09-06T18:14:11.871Z,100983.78
2022-09-06T18:16:40.075Z,100979.66
2022-09-06T18:19:08.290Z,100979.34
2022-09-06T18:21:38.841Z,100985.31
2022-09-06T18:24:06.146Z,100982.28
2022-09-06T18:26:33.161Z,100990.06
2022-09-06T18:29:00.547Z,100988.00
2022-09-06T18:31:28.264Z,100990.47
2022-09-06T18:33:59.880Z,100987.34
2022-09-06T18:36:31.737Z,100994.91
2022-09-06T18:39:03.198Z,100990.09
2022-09-06T18:41:49.496Z,100988.78
2022-09-06T18:44:16.772Z,100988.44
2022-09-06T18:46:44.720Z,100983.63
2022-09-06T18:49:14.178Z,100991.22
2022-09-06T18:51:41.397Z,100993.53
2022-09-06T18:54:09.619Z,100991.22
2022-09-06T18:56:36.557Z,100988.13
2022-09-06T18:59:05.217Z,100993.03
2022-09-06T19:01:33.315Z,100989.03
2022-09-06T19:04:01.163Z,100991.94
2022-09-06T19:06:29.662Z,100988.66
2022-09-06T19:09:00.961Z,100987.22
2022-09-06T19:11:28.542Z,100983.34
2022-09-06T19:13:56.961Z,100982.03
2022-09-06T19:16:25.790Z,100970.22
2022-09-06T19:18:56.790Z,100969.84
2022-09-06T19:21:25.592Z,100957.91
2022-09-06T19:24:04.560Z,100952.13
2022-09-06T19:26:34.986Z,100954.25
2022-09-06T19:29:05.194Z,100948.31
2022-09-06T19:31:34.974Z,100958.69
2022-09-06T19:34:02.713Z,100959.97
2022-09-06T19:36:31.953Z,100959.47
2022-09-06T19:39:05.535Z,100960.53
2022-09-06T19:41:36.571Z,100960.91
2022-09-06T19:44:05.895Z,100955.94
2022-09-06T19:46:34.948Z,100941.47
2022-09-06T19:49:02.325Z,100939.69
2022-09-06T19:51:29.396Z,100934.75
2022-09-06T19:54:00.414Z,100939.06
2022-09-06T19:56:31.725Z,100936.03
2022-09-06T19:59:10.014Z,100945.88
2022-09-06T20:01:41.650Z,100958.63
2022-09-06T20:04:11.089Z,100952.69
2022-09-06T20:06:38.553Z,100950.38
2022-09-06T20:09:09.258Z,100944.13
2022-09-06T20:11:37.873Z,100944.56
2022-09-06T20:14:05.092Z,100936.13
2022-09-06T20:16:32.736Z,100931.16
2022-09-06T20:19:00.375Z,100943.56
2022-09-06T20:21:30.902Z,100937.53
2022-09-06T20:23:59.385Z,100951.72
2022-09-06T20:26:29.100Z,100942.19
2022-09-06T20:29:00.480Z,100942.41
2022-09-06T20:31:29.393Z,100952.16
2022-09-06T20:33:59.313Z,100952.38
2022-09-06T20:36:26.323Z,100942.88
2022-09-06T20:38:53.369Z,100939.38
2022-09-06T20:41:23.468Z,100941.41
2022-09-06T20:43:52.653Z,100945.09
2022-09-06T20:46:21.778Z,100956.66
2022-09-06T20:48:48.967Z,100956.88
2022-09-06T20:51:19.132Z,100959.59
2022-09-06T20:53:48.744Z,100954.66
2022-09-06T20:56:18.571Z,100957.31
2022-09-06T20:58:56.901Z,100953.91
2022-09-06T21:01:25.487Z,100962.59
2022-09-06T21:03:54.691Z,100966.19
2022-09-06T21:06:22.888Z,100960.88
2022-09-06T21:08:50.342Z,100968.09
2022-09-06T21:11:18.180Z,100970.41
2022-09-06T21:13:50.654Z,100978.97
2022-09-06T21:16:23.957Z,100983.31
2022-09-06T21:18:52.866Z,100974.63
2022-09-06T21:21:19.931Z,100979.84
2022-09-06T21:23:46.858Z,100975.47
2022-09-06T21:26:15.955Z,100967.53
2022-09-06T21:28:45.255Z,100958.78
2022-09-06T21:31:25.162Z,100966.84
2022-09-06T21:33:54.378Z,100960.78
2022-09-06T21:36:24.103Z,100951.19
2022-09-06T21:39:00.803Z,100953.63
2022-09-06T21:41:31.993Z,100940.69
2022-09-06T21:44:09.455Z,100957.31
2022-09-06T21:46:38.116Z,100946.75
2022-09-06T21:49:14.034Z,100938.06
2022-09-06T21:51:41.529Z,100930.13
2022-09-06T21:54:10.684Z,100936.16
2022-09-06T21:56:41.539Z,100936.16
2022-09-06T21:59:12.783Z,100930.75
2022-09-06T22:01:48.124Z,100932.31
2022-09-06T22:04:16.610Z,100918.50
2022-09-06T22:06:46.511Z,100922.72
2022-09-06T22:09:13.762Z,100915.00
2022-09-06T22:11:58.240Z,100895.75
2022-09-06T22:14:32.363Z,100894.91
2022-09-06T22:17:02.889Z,100890.38
2022-09-06T22:19:29.929Z,100880.84
2022-09-06T22:22:02.887Z,100885.31
2022-09-06T22:24:32.564Z,100865.09
2022-09-06T22:27:25.855Z,100876.50
2022-09-06T22:29:53.366Z,100863.41
2022-09-06T22:32:23.612Z,100862.56
2022-09-06T22:34:50.715Z,100860.75
2022-09-06T22:37:17.619Z,100864.16
2022-09-06T22:39:45.916Z,100858.00
2022-09-06T22:42:17.364Z,100846.34
2022-09-06T22:44:46.656Z,100846.25
2022-09-06T22:47:30.787Z,100840.97
2022-09-06T22:49:58.594Z,100844.47
2022-09-06T22:52:25.663Z,100828.91
2022-09-06T22:54:52.586Z,100832.06
2022-09-06T22:57:21.053Z,100823.41
2022-09-06T22:59:51.375Z,100832.06
2022-09-06T23:02:18.318Z,100843.50
2022-09-06T23:04:45.256Z,100839.91
2022-09-06T23:07:13.132Z,100837.59
2022-09-06T23:09:44.543Z,100855.03
2022-09-06T23:12:12.515Z,100879.28
2022-09-06T23:14:59.939Z,101067.75
2022-09-06T23:17:28.930Z,101081.16
2022-09-06T23:19:56.155Z,101100.56
2022-09-06T23:22:23.112Z,101092.69
2022-09-06T23:24:56.006Z,101085.78
2022-09-06T23:27:24.529Z,101101.69
2022-09-06T23:29:52.947Z,101107.88
2022-09-06T23:32:19.959Z,101115.28
2022-09-06T23:34:47.390Z,101117.56
2022-09-06T23:37:17.747Z,101123.22
2022-09-06T23:39:47.034Z,101115.72
2022-09-06T23:42:15.178Z,101102.19
2022-09-06T23:44:44.786Z,101111.84
2022-09-06T23:47:11.733Z,101113.84
2022-09-06T23:49:39.059Z,101119.44
2022-09-06T23:52:09.835Z,101122.25
2022-09-06T23:54:36.782Z,101114.63
2022-09-06T23:57:06.117Z,101109.91
2022-09-06T23:59:34.870Z,101143.25
